createdAt,value
2023-04-14T00:00:18.022Z,13
2023-04-14T00:01:25.116Z,13
2023-04-14T00:02:32.230Z,14
2023-04-14T00:03:39.367Z,13
2023-04-14T00:04:46.452Z,14
2023-04-14T00:05:56.419Z,13
2023-04-14T00:07:03.543Z,11
2023-04-14T00:08:10.609Z,13
2023-04-14T00:09:17.707Z,13
2023-04-14T00:10:24.737Z,13
2023-04-14T00:11:35.359Z,13
2023-04-14T00:12:44.678Z,13
2023-04-14T00:13:53.497Z,13
2023-04-14T00:15:04.023Z,13
2023-04-14T00:16:11.330Z,13
2023-04-14T00:17:18.461Z,13
2023-04-14T00:18:25.550Z,13
2023-04-14T00:19:35.034Z,14
2023-04-14T00:20:42.038Z,12
2023-04-14T00:21:49.129Z,13
2023-04-14T00:22:56.250Z,13
2023-04-14T00:24:03.349Z,13
2023-04-14T00:25:10.425Z,13
2023-04-14T00:26:21.920Z,12
2023-04-14T00:27:31.962Z,12
2023-04-14T00:28:43.091Z,13
2023-04-14T00:29:50.409Z,13
2023-04-14T00:31:01.486Z,14
2023-04-14T00:32:09.200Z,13
2023-04-14T00:33:16.343Z,14
2023-04-14T00:34:23.564Z,13
2023-04-14T00:35:32.438Z,14
2023-04-14T00:36:39.493Z,15
2023-04-14T00:37:46.556Z,14
2023-04-14T00:38:53.757Z,14
2023-04-14T00:40:00.890Z,14
2023-04-14T00:41:08.305Z,14
2023-04-14T00:42:15.347Z,14
2023-04-14T00:43:22.347Z,14
2023-04-14T00:44:29.466Z,13
2023-04-14T00:45:36.639Z,13
2023-04-14T00:46:48.685Z,15
2023-04-14T00:47:55.833Z,14
2023-04-14T00:49:03.024Z,15
2023-04-14T00:50:09.889Z,15
2023-04-14T00:51:16.962Z,15
2023-04-14T00:52:24.927Z,14
2023-04-14T00:53:32.064Z,14
2023-04-14T00:54:39.202Z,15
2023-04-14T00:55:50.393Z,15
2023-04-14T00:56:57.445Z,15
2023-04-14T00:58:04.579Z,17
2023-04-14T00:59:11.917Z,15
2023-04-14T01:00:18.917Z,16
2023-04-14T01:01:26.070Z,16
2023-04-14T01:02:33.374Z,17
2023-04-14T01:03:44.421Z,16
2023-04-14T01:04:54.528Z,16
2023-04-14T01:05:58.493Z,17
2023-04-14T01:07:08.629Z,18
2023-04-14T01:08:15.697Z,16
2023-04-14T01:09:22.761Z,18
2023-04-14T01:10:29.899Z,18
2023-04-14T01:11:37.009Z,18
2023-04-14T01:12:49.920Z,17
2023-04-14T01:14:04.821Z,17
2023-04-14T01:15:17.672Z,17
2023-04-14T01:16:24.755Z,16
2023-04-14T01:17:35.085Z,16
2023-04-14T01:18:56.022Z,18
2023-04-14T01:20:13.308Z,17
2023-04-14T01:21:27.483Z,17
2023-04-14T01:22:34.557Z,16
2023-04-14T01:23:41.705Z,17
2023-04-14T01:24:51.543Z,18
2023-04-14T01:26:09.045Z,17
2023-04-14T01:27:18.905Z,17
2023-04-14T01:28:36.154Z,17
2023-04-14T01:29:53.626Z,16
2023-04-14T01:31:03.828Z,16
2023-04-14T01:32:15.978Z,16
2023-04-14T01:33:23.141Z,16
2023-04-14T01:34:31.033Z,16
2023-04-14T01:35:38.251Z,16
2023-04-14T01:36:50.847Z,16
2023-04-14T01:38:00.769Z,16
2023-04-14T01:39:07.936Z,17
2023-04-14T01:40:15.106Z,17
2023-04-14T01:41:22.189Z,17
2023-04-14T01:42:29.246Z,17
2023-04-14T01:43:36.428Z,17
2023-04-14T01:44:43.554Z,17
2023-04-14T01:45:50.653Z,17
2023-04-14T01:46:57.781Z,17
2023-04-14T01:48:05.093Z,17
2023-04-14T01:49:13.756Z,18
2023-04-14T01:50:20.924Z,17
2023-04-14T01:51:28.077Z,17
2023-04-14T01:52:38.933Z,17
2023-04-14T01:53:46.023Z,18
2023-04-14T01:54:53.210Z,17
2023-04-14T01:56:00.341Z,17
2023-04-14T01:57:07.604Z,18
2023-04-14T01:58:14.690Z,18
2023-04-14T01:59:21.794Z,17
2023-04-14T02:00:29.015Z,17
2023-04-14T02:01:36.220Z,17
2023-04-14T02:02:43.464Z,17
2023-04-14T02:03:50.601Z,17
2023-04-14T02:04:58.527Z,17
2023-04-14T02:06:05.633Z,17
2023-04-14T02:07:12.921Z,16
2023-04-14T02:08:19.963Z,16
2023-04-14T02:09:27.113Z,15
2023-04-14T02:10:38.458Z,16
2023-04-14T02:11:45.660Z,16
2023-04-14T02:12:52.740Z,17
2023-04-14T02:14:04.887Z,17
2023-04-14T02:15:16.466Z,17
2023-04-14T02:16:23.801Z,17
2023-04-14T02:17:34.268Z,17
2023-04-14T02:18:41.517Z,17
2023-04-14T02:19:48.683Z,17
2023-04-14T02:20:55.822Z,17
2023-04-14T02:22:02.945Z,18
2023-04-14T02:23:10.114Z,18
2023-04-14T02:24:17.249Z,17
2023-04-14T02:25:27.998Z,17
2023-04-14T02:26:37.272Z,18
2023-04-14T02:27:44.466Z,18
2023-04-14T02:28:56.705Z,19
2023-04-14T02:30:13.935Z,18
2023-04-14T02:31:21.170Z,19
2023-04-14T02:32:28.302Z,19
2023-04-14T02:33:38.122Z,18
2023-04-14T02:34:45.156Z,18
2023-04-14T02:36:02.108Z,18
2023-04-14T02:37:16.996Z,18
2023-04-14T02:38:24.221Z,20
2023-04-14T02:39:36.398Z,20
2023-04-14T02:40:43.620Z,19
2023-04-14T02:41:51.711Z,19
2023-04-14T02:43:04.751Z,20
2023-04-14T02:44:14.652Z,19
2023-04-14T02:45:25.453Z,19
2023-04-14T02:46:32.803Z,20
2023-04-14T02:47:42.957Z,20
2023-04-14T02:48:52.286Z,20
2023-04-14T02:50:02.244Z,19
2023-04-14T02:51:09.706Z,19
2023-04-14T02:52:17.248Z,19
2023-04-14T02:53:24.225Z,21
2023-04-14T02:54:31.189Z,20
2023-04-14T02:55:39.152Z,21
2023-04-14T02:56:46.198Z,20
2023-04-14T02:57:53.278Z,20
2023-04-14T02:59:00.436Z,21
2023-04-14T03:00:07.161Z,20
2023-04-14T03:01:14.329Z,20
2023-04-14T03:02:21.417Z,21
2023-04-14T03:03:28.440Z,21
2023-04-14T03:04:35.285Z,21
2023-04-14T03:05:43.013Z,22
2023-04-14T03:06:50.003Z,20
2023-04-14T03:07:56.946Z,22
2023-04-14T03:09:08.861Z,22
2023-04-14T03:10:15.833Z,22
2023-04-14T03:11:22.904Z,21
2023-04-14T03:12:29.835Z,22
2023-04-14T03:13:36.728Z,22
2023-04-14T03:14:43.647Z,22
2023-04-14T03:15:50.650Z,22
2023-04-14T03:16:57.610Z,23
2023-04-14T03:18:06.001Z,23
2023-04-14T03:19:12.841Z,22
2023-04-14T03:20:20.977Z,23
2023-04-14T03:21:27.921Z,24
2023-04-14T03:22:35.119Z,23
2023-04-14T03:23:46.517Z,23
2023-04-14T03:24:54.237Z,24
2023-04-14T03:26:04.277Z,26
2023-04-14T03:27:11.270Z,26
2023-04-14T03:28:18.280Z,25
2023-04-14T03:29:29.406Z,27
2023-04-14T03:30:36.388Z,26
2023-04-14T03:31:43.358Z,24
2023-04-14T03:32:50.346Z,26
2023-04-14T03:33:57.212Z,24
2023-04-14T03:35:08.439Z,22
2023-04-14T03:36:15.452Z,24
2023-04-14T03:37:22.453Z,24
2023-04-14T03:38:33.128Z,24
2023-04-14T03:39:44.156Z,22
2023-04-14T03:40:51.207Z,24
2023-04-14T03:41:58.222Z,24
2023-04-14T03:43:05.172Z,24
2023-04-14T03:44:12.107Z,24
2023-04-14T03:45:19.076Z,26
2023-04-14T03:46:26.079Z,26
2023-04-14T03:47:33.885Z,25
2023-04-14T03:48:40.886Z,25
2023-04-14T03:49:47.856Z,26
2023-04-14T03:50:54.899Z,25
2023-04-14T03:52:01.815Z,25
2023-04-14T03:53:08.955Z,24
2023-04-14T03:54:15.961Z,26
2023-04-14T03:55:22.833Z,26
2023-04-14T03:56:29.807Z,27
2023-04-14T03:57:40.089Z,26
2023-04-14T03:58:47.123Z,27
2023-04-14T03:59:55.411Z,27
2023-04-14T04:01:05.314Z,28
2023-04-14T04:02:12.336Z,29
2023-04-14T04:03:22.439Z,28
2023-04-14T04:04:29.396Z,29
2023-04-14T04:05:36.328Z,30
2023-04-14T04:06:43.290Z,30
2023-04-14T04:07:51.462Z,28
2023-04-14T04:08:58.493Z,29
2023-04-14T04:10:05.493Z,28
2023-04-14T04:11:12.472Z,29
2023-04-14T04:12:19.448Z,30
2023-04-14T04:13:26.374Z,29
2023-04-14T04:14:33.261Z,28
2023-04-14T04:15:40.178Z,27
2023-04-14T04:16:47.235Z,28
2023-04-14T04:17:54.190Z,25
2023-04-14T04:19:01.211Z,26
2023-04-14T04:20:08.059Z,25
2023-04-14T04:21:14.979Z,25
2023-04-14T04:22:22.002Z,25
2023-04-14T04:23:29.387Z,27
2023-04-14T04:24:36.386Z,26
2023-04-14T04:25:43.386Z,25
2023-04-14T04:26:51.680Z,25
2023-04-14T04:27:58.604Z,26
2023-04-14T04:29:05.677Z,25
2023-04-14T04:30:12.651Z,24
2023-04-14T04:31:20.409Z,23
2023-04-14T04:32:27.648Z,25
2023-04-14T04:33:34.544Z,23
2023-04-14T04:34:41.464Z,25
2023-04-14T04:35:48.432Z,26
2023-04-14T04:36:55.370Z,25
2023-04-14T04:38:05.141Z,23
2023-04-14T04:39:15.411Z,24
2023-04-14T04:40:22.367Z,24
2023-04-14T04:41:29.317Z,24
2023-04-14T04:42:39.119Z,25
2023-04-14T04:43:48.382Z,25
2023-04-14T04:44:55.590Z,23
2023-04-14T04:46:05.061Z,24
2023-04-14T04:47:14.756Z,23
2023-04-14T04:48:24.995Z,25
2023-04-14T04:49:31.997Z,24
2023-04-14T04:50:39.080Z,24
2023-04-14T04:51:46.071Z,25
2023-04-14T04:52:53.025Z,25
2023-04-14T04:54:00.006Z,24
2023-04-14T04:55:07.023Z,25
2023-04-14T04:56:14.042Z,25
2023-04-14T04:57:24.143Z,23
2023-04-14T04:58:34.789Z,25
2023-04-14T04:59:45.882Z,24
2023-04-14T05:00:52.862Z,25
2023-04-14T05:02:00.629Z,24
2023-04-14T05:03:07.452Z,24
2023-04-14T05:04:17.754Z,25
2023-04-14T05:05:26.085Z,25
2023-04-14T05:06:33.189Z,25
2023-04-14T05:07:43.086Z,25
2023-04-14T05:08:50.066Z,25
2023-04-14T05:09:57.393Z,24
2023-04-14T05:11:04.494Z,26
2023-04-14T05:12:11.485Z,26
2023-04-14T05:13:18.504Z,25
2023-04-14T05:14:27.360Z,24
2023-04-14T05:15:32.426Z,26
2023-04-14T05:16:39.420Z,26
2023-04-14T05:17:46.435Z,26
2023-04-14T05:19:01.317Z,24
2023-04-14T05:20:08.281Z,23
2023-04-14T05:21:15.481Z,24
2023-04-14T05:22:24.109Z,23
2023-04-14T05:23:34.894Z,24
2023-04-14T05:24:43.185Z,22
2023-04-14T05:25:52.909Z,24
2023-04-14T05:28:08.958Z,22
2023-04-14T05:29:15.986Z,24
2023-04-14T05:30:22.877Z,24
2023-04-14T05:31:29.924Z,24
2023-04-14T05:32:37.215Z,24
2023-04-14T05:33:45.063Z,23
2023-04-14T05:34:52.018Z,25
2023-04-14T05:35:58.938Z,22
2023-04-14T05:37:06.041Z,22
2023-04-14T05:38:13.087Z,23
2023-04-14T05:39:20.065Z,24
2023-04-14T05:40:27.095Z,23
2023-04-14T05:41:34.105Z,23
2023-04-14T05:42:41.105Z,24
2023-04-14T05:43:49.953Z,25
2023-04-14T05:44:57.015Z,23
2023-04-14T05:46:03.937Z,23
2023-04-14T05:47:10.832Z,22
2023-04-14T05:48:17.800Z,25
2023-04-14T05:49:24.726Z,23
2023-04-14T05:50:31.675Z,24
2023-04-14T05:51:38.631Z,25
2023-04-14T05:52:45.576Z,24
2023-04-14T05:53:52.550Z,23
2023-04-14T05:54:59.463Z,24
2023-04-14T05:56:10.079Z,25
2023-04-14T05:57:19.870Z,26
2023-04-14T05:58:27.831Z,23
2023-04-14T05:59:34.831Z,25
2023-04-14T06:00:41.819Z,25
2023-04-14T06:01:48.464Z,27
2023-04-14T06:02:59.431Z,26
2023-04-14T06:04:07.405Z,28
2023-04-14T06:05:13.929Z,27
2023-04-14T06:06:20.325Z,27
2023-04-14T06:07:27.294Z,27
2023-04-14T06:08:34.297Z,28
2023-04-14T06:09:41.185Z,25
2023-04-14T06:10:48.088Z,24
2023-04-14T06:11:55.158Z,26
2023-04-14T06:13:06.223Z,27
2023-04-14T06:14:13.930Z,27
2023-04-14T06:15:23.183Z,25
2023-04-14T06:16:34.242Z,28
2023-04-14T06:17:44.969Z,27
2023-04-14T06:18:52.818Z,27
2023-04-14T06:19:59.765Z,28
2023-04-14T06:21:10.221Z,24
2023-04-14T06:22:17.223Z,26
2023-04-14T06:23:24.230Z,27
2023-04-14T06:24:31.160Z,27
2023-04-14T06:25:38.304Z,25
2023-04-14T06:26:45.298Z,24
2023-04-14T06:27:52.399Z,24
2023-04-14T06:28:59.890Z,25
2023-04-14T06:30:06.666Z,26
2023-04-14T06:31:13.882Z,24
2023-04-14T06:32:21.255Z,20
2023-04-14T06:33:27.847Z,21
2023-04-14T06:34:34.942Z,21
2023-04-14T06:35:42.362Z,22
2023-04-14T06:36:49.414Z,21
2023-04-14T06:37:56.507Z,20
2023-04-14T06:39:06.582Z,21
2023-04-14T06:40:18.883Z,19
2023-04-14T06:41:25.978Z,19
2023-04-14T06:42:32.900Z,19
2023-04-14T06:43:39.926Z,20
2023-04-14T06:44:48.026Z,20
2023-04-14T06:45:55.137Z,17
2023-04-14T06:47:02.059Z,18
2023-04-14T06:48:09.198Z,17
2023-04-14T06:49:16.030Z,16
2023-04-14T06:50:22.928Z,18
2023-04-14T06:51:30.903Z,18
2023-04-14T06:52:37.797Z,17
2023-04-14T06:53:44.826Z,17
2023-04-14T06:54:51.788Z,15
2023-04-14T06:55:58.887Z,17
2023-04-14T06:57:06.704Z,17
2023-04-14T06:58:14.833Z,15
2023-04-14T06:59:21.931Z,14
2023-04-14T07:00:28.880Z,14
2023-04-14T07:01:35.913Z,16
2023-04-14T07:02:42.876Z,16
2023-04-14T07:03:49.861Z,16
2023-04-14T07:04:56.804Z,16
2023-04-14T07:06:04.008Z,17
2023-04-14T07:07:12.111Z,16
2023-04-14T07:08:19.112Z,15
2023-04-14T07:09:27.096Z,17
2023-04-14T07:10:34.073Z,17
2023-04-14T07:11:40.977Z,16
2023-04-14T07:12:48.010Z,15
2023-04-14T07:13:54.981Z,16
2023-04-14T07:15:02.019Z,16
2023-04-14T07:16:09.425Z,16
2023-04-14T07:17:16.384Z,16
2023-04-14T07:18:23.385Z,16
2023-04-14T07:19:30.298Z,16
2023-04-14T07:20:37.225Z,16
2023-04-14T07:21:44.820Z,14
2023-04-14T07:22:54.772Z,15
2023-04-14T07:24:01.975Z,14
2023-04-14T07:25:12.757Z,15
2023-04-14T07:26:23.927Z,15
2023-04-14T07:27:31.931Z,14
2023-04-14T07:28:38.957Z,14
2023-04-14T07:29:45.961Z,14
2023-04-14T07:30:52.929Z,16
2023-04-14T07:31:59.809Z,15
2023-04-14T07:33:06.878Z,14
2023-04-14T07:34:13.920Z,14
2023-04-14T07:35:21.719Z,15
2023-04-14T07:36:29.238Z,15
2023-04-14T07:37:36.158Z,15
2023-04-14T07:38:43.254Z,15
2023-04-14T07:39:50.464Z,16
2023-04-14T07:40:57.428Z,15
2023-04-14T07:42:08.250Z,15
2023-04-14T07:43:15.754Z,16
2023-04-14T07:44:22.634Z,15
2023-04-14T07:45:29.638Z,15
2023-04-14T07:46:36.616Z,15
2023-04-14T07:47:43.548Z,15
2023-04-14T07:48:50.531Z,15
2023-04-14T07:49:57.482Z,15
2023-04-14T07:51:04.449Z,14
2023-04-14T07:52:11.322Z,15
2023-04-14T07:53:18.414Z,15
2023-04-14T07:54:28.226Z,15
2023-04-14T07:55:38.380Z,15
2023-04-14T07:56:45.495Z,15
2023-04-14T07:57:53.077Z,16
2023-04-14T07:59:00.435Z,15
2023-04-14T08:00:07.845Z,16
2023-04-14T08:01:15.904Z,15
2023-04-14T08:02:22.926Z,16
2023-04-14T08:03:29.992Z,16
2023-04-14T08:04:36.824Z,16
2023-04-14T08:05:48.419Z,15
2023-04-14T08:06:55.616Z,16
2023-04-14T08:08:02.583Z,15
2023-04-14T08:09:11.555Z,16
2023-04-14T08:10:18.517Z,16
2023-04-14T08:11:28.513Z,16
2023-04-14T08:12:35.518Z,14
2023-04-14T08:13:42.581Z,16
2023-04-14T08:14:50.781Z,15
2023-04-14T08:16:00.551Z,16
2023-04-14T08:17:07.476Z,16
2023-04-14T08:18:14.582Z,16
2023-04-14T08:19:21.482Z,16
2023-04-14T08:20:30.175Z,16
2023-04-14T08:21:37.132Z,16
2023-04-14T08:22:47.873Z,16
2023-04-14T08:23:54.875Z,16
2023-04-14T08:25:01.815Z,16
2023-04-14T08:26:08.781Z,17
2023-04-14T08:27:18.190Z,17
2023-04-14T08:28:25.150Z,16
2023-04-14T08:29:32.160Z,16
2023-04-14T08:30:39.353Z,17
2023-04-14T08:31:46.220Z,17
2023-04-14T08:32:53.007Z,17
2023-04-14T08:33:59.836Z,16
2023-04-14T08:35:36.528Z,17
2023-04-14T08:36:15.798Z,15
2023-04-14T08:37:25.000Z,16
2023-04-14T08:38:32.012Z,17
2023-04-14T08:39:38.889Z,17
2023-04-14T08:40:45.880Z,16
2023-04-14T08:41:54.778Z,19
2023-04-14T08:43:01.807Z,19
2023-04-14T08:44:11.148Z,18
2023-04-14T08:45:22.655Z,19
2023-04-14T08:46:29.622Z,18
2023-04-14T08:47:39.747Z,19
2023-04-14T08:48:46.856Z,19
2023-04-14T08:49:58.841Z,19
2023-04-14T08:51:11.210Z,18
2023-04-14T08:52:28.437Z,18
2023-04-14T08:53:36.447Z,18
2023-04-14T08:54:43.440Z,16
2023-04-14T08:55:53.090Z,17
2023-04-14T08:57:00.114Z,18
2023-04-14T08:58:08.225Z,17
2023-04-14T08:59:17.243Z,16
2023-04-14T09:00:24.276Z,18
2023-04-14T09:01:32.587Z,17
2023-04-14T09:02:38.322Z,18
2023-04-14T09:03:45.342Z,19
2023-04-14T09:04:56.868Z,19
2023-04-14T09:06:07.078Z,17
2023-04-14T09:07:15.124Z,18
2023-04-14T09:08:21.989Z,19
2023-04-14T09:09:29.976Z,18
2023-04-14T09:10:36.870Z,17
2023-04-14T09:11:46.914Z,18
2023-04-14T09:12:53.785Z,17
2023-04-14T09:14:00.798Z,17
2023-04-14T09:15:07.956Z,16
2023-04-14T09:16:19.244Z,16
2023-04-14T09:17:26.177Z,17
2023-04-14T09:18:33.696Z,16
2023-04-14T09:20:34.196Z,18
2023-04-14T09:21:30.285Z,19
2023-04-14T09:21:57.682Z,20
2023-04-14T09:23:06.307Z,20
2023-04-14T09:24:16.488Z,21
2023-04-14T09:25:23.381Z,20
2023-04-14T09:26:30.343Z,19
2023-04-14T09:27:37.444Z,19
2023-04-14T09:28:45.178Z,20
2023-04-14T09:29:52.110Z,18
2023-04-14T09:30:59.066Z,19
2023-04-14T09:32:05.996Z,19
2023-04-14T09:33:12.961Z,18
2023-04-14T09:34:29.146Z,20
2023-04-14T09:35:37.241Z,18
2023-04-14T09:36:46.929Z,19
2023-04-14T09:38:01.843Z,18
2023-04-14T09:39:08.706Z,17
2023-04-14T09:40:18.661Z,18
2023-04-14T09:41:32.933Z,18
2023-04-14T09:42:39.865Z,18
2023-04-14T09:43:49.485Z,18
2023-04-14T09:44:56.350Z,18
2023-04-14T09:46:03.263Z,17
2023-04-14T09:47:10.153Z,19
2023-04-14T09:48:17.106Z,19
2023-04-14T09:49:24.010Z,19
2023-04-14T09:50:32.409Z,19
2023-04-14T09:51:49.091Z,18
2023-04-14T09:52:56.163Z,19
2023-04-14T09:54:06.492Z,17
2023-04-14T09:55:13.017Z,16
2023-04-14T09:56:21.083Z,17
2023-04-14T09:57:32.073Z,19
2023-04-14T09:58:39.001Z,18
2023-04-14T09:59:45.900Z,18
2023-04-14T10:00:52.893Z,18
2023-04-14T10:02:00.041Z,18
2023-04-14T10:03:06.874Z,17
2023-04-14T10:04:13.778Z,18
2023-04-14T10:05:26.705Z,18
2023-04-14T10:06:34.544Z,17
2023-04-14T10:07:41.702Z,19
2023-04-14T10:08:53.483Z,18
2023-04-14T10:10:00.503Z,17
2023-04-14T10:11:10.397Z,18
2023-04-14T10:12:20.231Z,18
2023-04-14T10:13:27.621Z,16
2023-04-14T10:14:34.582Z,17
2023-04-14T10:15:47.093Z,15
2023-04-14T10:16:54.066Z,16
2023-04-14T10:18:01.055Z,15
2023-04-14T10:19:08.095Z,17
2023-04-14T10:20:15.048Z,15
2023-04-14T10:21:22.070Z,15
2023-04-14T10:22:29.561Z,15
2023-04-14T10:23:39.197Z,12
2023-04-14T10:24:46.183Z,21
2023-04-14T10:25:53.159Z,16
2023-04-14T10:27:00.887Z,15
2023-04-14T10:28:07.823Z,15
2023-04-14T10:29:15.444Z,16
2023-04-14T10:30:23.209Z,13
2023-04-14T10:31:30.203Z,13
2023-04-14T10:32:45.207Z,13
2023-04-14T10:33:52.110Z,12
2023-04-14T10:35:02.579Z,10
2023-04-14T10:36:14.221Z,12
2023-04-14T10:37:27.097Z,9
2023-04-14T10:38:33.977Z,10
2023-04-14T10:39:40.862Z,10
2023-04-14T10:40:47.661Z,10
2023-04-14T10:41:54.542Z,10
2023-04-14T10:43:01.418Z,9
2023-04-14T10:44:08.213Z,10
2023-04-14T10:45:25.273Z,11
2023-04-14T10:46:32.741Z,8
2023-04-14T10:47:47.265Z,11
2023-04-14T10:48:54.072Z,10
2023-04-14T10:50:00.995Z,10
2023-04-14T10:51:12.964Z,8
2023-04-14T10:52:19.840Z,10
2023-04-14T10:53:29.265Z,9
2023-04-14T10:54:41.223Z,9
2023-04-14T10:55:55.856Z,10
2023-04-14T10:57:02.652Z,9
2023-04-14T10:58:15.236Z,8
2023-04-14T10:59:22.120Z,9
2023-04-14T11:00:28.970Z,8
2023-04-14T11:01:35.872Z,9
2023-04-14T11:02:42.791Z,10
2023-04-14T11:03:55.026Z,9
2023-04-14T11:05:03.328Z,9
2023-04-14T11:06:10.663Z,9
2023-04-14T11:07:17.816Z,9
2023-04-14T11:08:24.671Z,9
2023-04-14T11:09:31.547Z,9
2023-04-14T11:10:41.452Z,10
2023-04-14T11:11:51.533Z,9
2023-04-14T11:12:58.430Z,10
2023-04-14T11:14:05.339Z,9
2023-04-14T11:15:15.012Z,9
2023-04-14T11:16:21.952Z,8
2023-04-14T11:17:31.839Z,10
2023-04-14T11:18:42.741Z,9
2023-04-14T11:19:49.136Z,9
2023-04-14T11:20:55.974Z,9
2023-04-14T11:22:08.736Z,9
2023-04-14T11:23:15.679Z,8
2023-04-14T11:24:22.612Z,9
2023-04-14T11:25:29.478Z,8
2023-04-14T11:26:36.412Z,9
2023-04-14T11:27:43.216Z,9
2023-04-14T11:28:50.029Z,9
2023-04-14T11:29:57.739Z,8
2023-04-14T11:31:04.702Z,9
2023-04-14T11:32:11.832Z,8
2023-04-14T11:33:18.610Z,8
2023-04-14T11:34:25.399Z,8
2023-04-14T11:35:33.375Z,8
2023-04-14T11:36:40.372Z,8
2023-04-14T11:37:47.256Z,8
2023-04-14T11:38:56.882Z,8
2023-04-14T11:40:06.551Z,8
2023-04-14T11:41:14.477Z,8
2023-04-14T11:42:22.285Z,8
2023-04-14T11:43:29.130Z,8
2023-04-14T11:44:36.261Z,7
2023-04-14T11:45:43.382Z,8
2023-04-14T11:46:50.249Z,8
2023-04-14T11:47:58.243Z,8
2023-04-14T11:49:05.100Z,8
2023-04-14T11:50:12.018Z,8
2023-04-14T11:51:18.990Z,11
2023-04-14T11:52:30.911Z,9
2023-04-14T11:53:37.860Z,12
2023-04-14T11:54:44.785Z,9
2023-04-14T11:55:52.724Z,13
2023-04-14T11:56:59.636Z,9
2023-04-14T11:58:06.524Z,10
2023-04-14T11:59:13.536Z,8
2023-04-14T12:00:20.578Z,8
2023-04-14T12:01:30.439Z,7
2023-04-14T12:02:38.380Z,7
2023-04-14T12:03:45.340Z,6
2023-04-14T12:04:52.591Z,6
2023-04-14T12:05:59.198Z,5
2023-04-14T12:07:06.157Z,6
2023-04-14T12:08:13.011Z,6
2023-04-14T12:09:19.866Z,6
2023-04-14T12:10:28.474Z,14
2023-04-14T12:11:35.394Z,6
2023-04-14T12:12:42.264Z,5
2023-04-14T12:13:49.211Z,6
2023-04-14T12:14:56.069Z,5
2023-04-14T12:16:07.531Z,6
2023-04-14T12:17:15.552Z,5
2023-04-14T12:18:22.742Z,6
2023-04-14T12:19:29.969Z,5
2023-04-14T12:20:36.863Z,5
2023-04-14T12:21:48.874Z,5
2023-04-14T12:22:55.728Z,4
2023-04-14T12:24:05.501Z,5
2023-04-14T12:25:12.514Z,5
2023-04-14T12:26:19.554Z,4
2023-04-14T12:27:26.536Z,4
2023-04-14T12:28:35.125Z,4
2023-04-14T12:29:45.052Z,4
2023-04-14T12:30:53.028Z,4
2023-04-14T12:32:00.380Z,4
2023-04-14T12:33:14.868Z,4
2023-04-14T12:34:22.951Z,4
2023-04-14T12:35:29.912Z,4
2023-04-14T12:36:49.406Z,4
2023-04-14T12:37:43.662Z,4
2023-04-14T12:38:51.293Z,5
2023-04-14T12:39:58.264Z,5
2023-04-14T12:41:05.127Z,4
2023-04-14T12:42:12.110Z,4
2023-04-14T12:43:21.673Z,4
2023-04-14T12:44:38.299Z,4
2023-04-14T12:45:45.809Z,4
2023-04-14T12:46:53.478Z,4
2023-04-14T12:48:06.499Z,3
2023-04-14T12:49:16.402Z,4
2023-04-14T12:50:33.537Z,4
2023-04-14T12:51:41.375Z,4
2023-04-14T12:52:48.641Z,3
2023-04-14T12:53:55.581Z,3
2023-04-14T12:55:02.621Z,4
2023-04-14T12:56:14.065Z,3
2023-04-14T12:57:20.996Z,4
2023-04-14T12:58:31.204Z,4
2023-04-14T12:59:38.496Z,3
2023-04-14T13:00:45.420Z,4
2023-04-14T13:01:52.342Z,4
2023-04-14T13:03:01.907Z,4
2023-04-14T13:04:08.896Z,4
2023-04-14T13:05:17.121Z,4
2023-04-14T13:06:24.129Z,4
2023-04-14T13:07:31.208Z,3
2023-04-14T13:08:38.186Z,4
2023-04-14T13:09:45.183Z,4
2023-04-14T13:10:54.687Z,4
2023-04-14T13:12:02.490Z,4
2023-04-14T13:13:09.396Z,4
2023-04-14T13:14:16.293Z,4
2023-04-14T13:15:32.616Z,4
2023-04-14T13:16:35.937Z,4
2023-04-14T13:17:45.785Z,4
2023-04-14T13:18:59.370Z,4
2023-04-14T13:20:07.287Z,4
2023-04-14T13:21:15.058Z,4
2023-04-14T13:22:22.211Z,4
2023-04-14T13:23:30.154Z,4
2023-04-14T13:24:37.227Z,4
2023-04-14T13:25:45.224Z,3
2023-04-14T13:26:55.715Z,4
2023-04-14T13:28:14.068Z,4
2023-04-14T13:29:23.358Z,4
2023-04-14T13:30:32.671Z,4
2023-04-14T13:31:39.682Z,4
2023-04-14T13:32:46.717Z,4
2023-04-14T13:33:55.648Z,4
2023-04-14T13:35:02.637Z,4
2023-04-14T13:36:09.746Z,4
2023-04-14T13:37:18.495Z,4
2023-04-14T13:38:25.462Z,3
2023-04-14T13:39:32.235Z,4
2023-04-14T13:40:39.091Z,3
2023-04-14T13:41:45.959Z,3
2023-04-14T13:42:52.976Z,3
2023-04-14T13:44:00.064Z,4
2023-04-14T13:45:08.222Z,3
2023-04-14T13:46:16.608Z,3
2023-04-14T13:47:22.385Z,4
2023-04-14T13:48:31.817Z,4
2023-04-14T13:49:39.560Z,4
2023-04-14T13:50:46.933Z,4
2023-04-14T13:51:53.887Z,4
2023-04-14T13:53:01.824Z,4
2023-04-14T13:54:08.859Z,5
2023-04-14T13:55:19.900Z,5
2023-04-14T13:56:28.857Z,5
2023-04-14T13:57:36.901Z,5
2023-04-14T13:58:43.821Z,5
2023-04-14T13:59:50.720Z,5
2023-04-14T14:00:57.733Z,5
2023-04-14T14:02:04.894Z,5
2023-04-14T14:03:11.758Z,4
2023-04-14T14:04:18.682Z,5
2023-04-14T14:05:25.438Z,4
2023-04-14T14:06:32.323Z,3
2023-04-14T14:07:40.980Z,3
2023-04-14T14:08:47.998Z,3
2023-04-14T14:10:06.122Z,3
2023-04-14T14:11:13.272Z,3
2023-04-14T14:12:20.942Z,4
2023-04-14T14:13:30.214Z,4
2023-04-14T14:14:40.513Z,3
2023-04-14T14:15:49.332Z,3
2023-04-14T14:16:56.282Z,3
2023-04-14T14:18:03.245Z,3
2023-04-14T14:19:11.040Z,4
2023-04-14T14:20:22.175Z,4
2023-04-14T14:21:29.285Z,4
2023-04-14T14:22:36.185Z,4
2023-04-14T14:23:43.104Z,4
2023-04-14T14:24:50.048Z,4
2023-04-14T14:26:00.524Z,4
2023-04-14T14:27:07.516Z,3
2023-04-14T14:28:14.387Z,4
2023-04-14T14:29:23.412Z,4
2023-04-14T14:30:31.130Z,3
2023-04-14T14:31:42.023Z,3
2023-04-14T14:32:49.797Z,3
2023-04-14T14:33:58.173Z,3
2023-04-14T14:35:06.012Z,3
2023-04-14T14:36:13.048Z,3
2023-04-14T14:37:19.973Z,3
2023-04-14T14:38:26.839Z,3
2023-04-14T14:39:33.609Z,3
2023-04-14T14:40:41.438Z,3
2023-04-14T14:41:50.941Z,3
2023-04-14T14:42:58.627Z,3
2023-04-14T14:44:07.396Z,3
2023-04-14T14:45:14.217Z,3
2023-04-14T14:46:21.063Z,4
2023-04-14T14:47:27.903Z,4
2023-04-14T14:48:34.775Z,4
2023-04-14T14:49:49.239Z,4
2023-04-14T14:50:48.632Z,4
2023-04-14T14:51:55.483Z,4
2023-04-14T14:53:02.226Z,4
2023-04-14T14:54:10.022Z,4
2023-04-14T14:55:16.706Z,4
2023-04-14T14:56:25.453Z,4
2023-04-14T14:57:32.298Z,5
2023-04-14T14:58:39.143Z,5
2023-04-14T14:59:46.068Z,4
2023-04-14T15:00:53.000Z,5
2023-04-14T15:02:00.058Z,5
2023-04-14T15:03:07.731Z,4
2023-04-14T15:04:14.609Z,5
2023-04-14T15:05:21.342Z,5
2023-04-14T15:06:28.266Z,4
2023-04-14T15:07:35.091Z,4
2023-04-14T15:08:41.926Z,4
2023-04-14T15:09:48.847Z,5
2023-04-14T15:10:57.205Z,5
2023-04-14T15:12:04.093Z,5
2023-04-14T15:13:11.094Z,5
2023-04-14T15:14:17.926Z,5
2023-04-14T15:15:24.801Z,5
2023-04-14T15:16:31.638Z,5
2023-04-14T15:17:39.648Z,5
2023-04-14T15:18:46.448Z,5
2023-04-14T15:19:53.393Z,5
2023-04-14T15:21:00.193Z,5
2023-04-14T15:22:07.201Z,5
2023-04-14T15:23:14.042Z,6
2023-04-14T15:24:20.843Z,6
2023-04-14T15:25:27.771Z,6
2023-04-14T15:26:34.781Z,6
2023-04-14T15:27:41.607Z,8
2023-04-14T15:28:48.518Z,9
2023-04-14T15:29:55.295Z,9
2023-04-14T15:31:02.257Z,8
2023-04-14T15:32:09.226Z,10
2023-04-14T15:33:16.032Z,10
2023-04-14T15:34:23.042Z,10
2023-04-14T15:35:29.882Z,9
2023-04-14T15:36:39.412Z,8
2023-04-14T15:37:46.445Z,8
2023-04-14T15:38:53.264Z,8
2023-04-14T15:40:00.220Z,7
2023-04-14T15:41:07.073Z,8
2023-04-14T15:42:13.941Z,8
2023-04-14T15:43:20.974Z,7
2023-04-14T15:44:27.938Z,7
2023-04-14T15:45:34.781Z,8
2023-04-14T15:46:41.570Z,8
2023-04-14T15:47:48.389Z,8
2023-04-14T15:48:55.215Z,8
2023-04-14T15:50:08.552Z,7
2023-04-14T15:51:09.914Z,7
2023-04-14T15:52:16.093Z,7
2023-04-14T15:53:22.882Z,7
2023-04-14T15:54:29.750Z,7
2023-04-14T15:55:36.596Z,7
2023-04-14T15:56:43.462Z,7
2023-04-14T15:57:50.961Z,7
2023-04-14T15:58:57.151Z,7
2023-04-14T16:00:04.056Z,6
2023-04-14T16:01:11.288Z,6
2023-04-14T16:02:18.098Z,6
2023-04-14T16:03:25.161Z,6
2023-04-14T16:04:31.962Z,6
2023-04-14T16:05:38.668Z,6
2023-04-14T16:06:46.207Z,6
2023-04-14T16:07:52.503Z,6
2023-04-14T16:08:59.817Z,6
2023-04-14T16:10:06.564Z,6
2023-04-14T16:11:13.549Z,6
2023-04-14T16:12:20.406Z,7
2023-04-14T16:13:27.441Z,6
2023-04-14T16:14:34.428Z,6
2023-04-14T16:15:41.398Z,6
2023-04-14T16:16:48.229Z,7
2023-04-14T16:17:55.185Z,7
2023-04-14T16:19:02.253Z,8
2023-04-14T16:20:08.958Z,8
2023-04-14T16:21:15.834Z,9
2023-04-14T16:22:22.722Z,8